createdAt,value
2023-02-24T04:36:59.428Z,97357.79
2023-02-24T04:39:33.626Z,97357.06
2023-02-24T04:42:13.532Z,97356.50
2023-02-24T04:44:46.704Z,97352.48
2023-02-24T04:47:19.066Z,97353.46
2023-02-24T04:49:51.480Z,97348.95
2023-02-24T04:52:23.703Z,97347.89
2023-02-24T04:54:56.112Z,97347.07
2023-02-24T04:57:28.442Z,97341.36
2023-02-24T05:00:00.865Z,97339.59
2023-02-24T05:02:33.385Z,97332.14
2023-02-24T05:05:08.081Z,97329.45
2023-02-24T05:07:41.061Z,97322.92
2023-02-24T05:10:14.883Z,97321.46
2023-02-24T05:12:47.852Z,97319.60
2023-02-24T05:15:20.330Z,97314.45
2023-02-24T05:17:55.655Z,97310.46
2023-02-24T05:20:46.374Z,97313.16
2023-02-24T05:23:17.289Z,97313.14
2023-02-24T05:25:49.712Z,97310.06
2023-02-24T05:28:23.297Z,97304.77
2023-02-24T05:30:56.445Z,97302.08
2023-02-24T05:33:29.388Z,97306.59
2023-02-24T05:36:06.675Z,97302.33
2023-02-24T05:38:39.190Z,97299.52
2023-02-24T05:41:17.142Z,97296.52
2023-02-24T05:43:54.994Z,97296.11
2023-02-24T05:46:29.798Z,97298.08
2023-02-24T05:49:09.309Z,97296.27
2023-02-24T05:51:43.901Z,97295.58
2023-02-24T05:54:18.419Z,97296.37
2023-02-24T05:56:51.278Z,97295.81
2023-02-24T05:59:24.141Z,97292.88
2023-02-24T06:01:56.996Z,97291.18
2023-02-24T06:04:40.394Z,97291.02
2023-02-24T06:07:19.429Z,97289.77
2023-02-24T06:09:54.777Z,97289.27
2023-02-24T06:12:28.965Z,97290.89
2023-02-24T06:15:02.325Z,97291.85
2023-02-24T06:17:35.249Z,97290.52
2023-02-24T06:20:15.372Z,97286.10
2023-02-24T06:22:48.831Z,97280.67
2023-02-24T06:25:21.620Z,97283.25
2023-02-24T06:27:55.866Z,97281.48
2023-02-24T06:30:29.043Z,97277.80
2023-02-24T06:33:01.425Z,97274.39
2023-02-24T06:35:34.143Z,97275.95
2023-02-24T06:38:08.765Z,97277.39
2023-02-24T06:40:42.765Z,97274.09
2023-02-24T06:43:15.080Z,97272.84
2023-02-24T06:45:47.704Z,97273.61
2023-02-24T06:48:20.001Z,97273.45
2023-02-24T06:50:52.455Z,97273.64
2023-02-24T06:53:26.837Z,97274.98
2023-02-24T06:56:02.962Z,97275.98
2023-02-24T06:58:35.677Z,97272.63
2023-02-24T07:01:12.357Z,97274.39
2023-02-24T07:04:03.428Z,97272.12
2023-02-24T07:06:41.133Z,97266.10
2023-02-24T07:09:15.594Z,97268.14
2023-02-24T07:11:52.544Z,97264.16
2023-02-24T07:14:26.914Z,97264.41
2023-02-24T07:16:59.749Z,97263.11
2023-02-24T07:19:34.334Z,97259.73
2023-02-24T07:22:09.876Z,97259.54
2023-02-24T07:24:46.510Z,97252.80
2023-02-24T07:27:23.345Z,97256.67
2023-02-24T07:29:55.874Z,97253.46
2023-02-24T07:32:28.412Z,97248.11
2023-02-24T07:35:00.730Z,97248.98
2023-02-24T07:37:34.973Z,97246.59
2023-02-24T07:40:10.421Z,97243.85
2023-02-24T07:42:43.302Z,97239.96
2023-02-24T07:45:16.426Z,97239.86
2023-02-24T07:47:50.855Z,97235.59
2023-02-24T07:50:23.918Z,97235.85
2023-02-24T07:52:56.887Z,97234.40
2023-02-24T07:55:31.504Z,97229.23
2023-02-24T07:58:06.207Z,97231.89
2023-02-24T08:00:59.482Z,97230.55
2023-02-24T08:03:33.328Z,97224.42
2023-02-24T08:06:15.746Z,97223.16
2023-02-24T08:08:59.964Z,97222.67
2023-02-24T08:11:35.846Z,97223.23
2023-02-24T08:14:13.988Z,97223.06
2023-02-24T08:16:48.893Z,97221.34
2023-02-24T08:19:22.295Z,97212.80
2023-02-24T08:22:00.269Z,97215.72
2023-02-24T08:24:35.822Z,97210.84
2023-02-24T08:27:09.998Z,97212.38
2023-02-24T08:29:58.299Z,97211.23
2023-02-24T08:32:37.206Z,97208.58
2023-02-24T08:35:15.607Z,97204.70
2023-02-24T08:37:50.141Z,97202.52
2023-02-24T08:40:39.610Z,97197.23
2023-02-24T08:43:24.959Z,97196.45
2023-02-24T08:46:01.081Z,97195.84
2023-02-24T08:48:42.812Z,97194.23
2023-02-24T08:51:25.205Z,97190.25
2023-02-24T08:53:59.552Z,97184.18
2023-02-24T08:56:35.069Z,97186.83
2023-02-24T08:59:13.248Z,97180.83
2023-02-24T09:02:04.120Z,97178.77
2023-02-24T09:04:37.371Z,97173.56
2023-02-24T09:10:23.236Z,97172.12
2023-02-24T09:12:55.458Z,97168.79
2023-02-24T09:15:41.550Z,97166.84
2023-02-24T09:18:15.498Z,97165.80
2023-02-24T09:21:14.008Z,97163.38
2023-02-24T09:23:47.176Z,97158.14
2023-02-24T09:26:20.899Z,97150.02
2023-02-24T09:28:56.866Z,97151.99
2023-02-24T09:31:41.105Z,97149.40
2023-02-24T09:34:18.759Z,97145.23
2023-02-24T09:37:03.252Z,97144.27
2023-02-24T09:39:51.705Z,97147.80
2023-02-24T09:42:46.520Z,97146.42
2023-02-24T09:45:33.446Z,97140.06
2023-02-24T09:48:15.648Z,97135.34
2023-02-24T09:51:04.559Z,97133.10
2023-02-24T09:53:49.474Z,97133.63
2023-02-24T09:56:27.747Z,97131.55
2023-02-24T09:59:13.864Z,97131.77
2023-02-24T10:01:55.086Z,97131.05
2023-02-24T10:04:49.475Z,97132.58
2023-02-24T10:07:30.145Z,97131.17
2023-02-24T10:10:20.653Z,97130.52
2023-02-24T10:12:53.437Z,97126.83
2023-02-24T10:15:47.934Z,97127.48
2023-02-24T10:18:34.833Z,97124.94
2023-02-24T10:21:18.222Z,97121.14
2023-02-24T10:24:08.240Z,97117.06
2023-02-24T10:26:59.590Z,97113.60
2023-02-24T10:29:44.640Z,97112.83
2023-02-24T10:32:24.724Z,97116.96
2023-02-24T10:34:56.914Z,97110.02
2023-02-24T10:37:30.422Z,97108.77
2023-02-24T10:40:10.227Z,97105.18
2023-02-24T10:42:48.026Z,97091.48
2023-02-24T10:45:27.541Z,97084.96
2023-02-24T10:48:01.259Z,97085.45
2023-02-24T10:50:55.239Z,97081.59
2023-02-24T10:53:34.996Z,97080.92
2023-02-24T10:56:26.978Z,97072.66
2023-02-24T10:59:28.476Z,97064.23
2023-02-24T11:02:24.920Z,97055.05
2023-02-24T11:05:25.781Z,97049.05
2023-02-24T11:08:15.849Z,97049.64
2023-02-24T11:10:58.803Z,97048.73
2023-02-24T11:13:48.844Z,97044.04
2023-02-24T11:16:39.452Z,97038.45
2023-02-24T11:19:12.144Z,97031.64
2023-02-24T11:21:44.500Z,97027.39
2023-02-24T11:24:20.306Z,97024.39
2023-02-24T11:26:52.525Z,97019.77
2023-02-24T11:29:41.445Z,97012.54
2023-02-24T11:32:30.495Z,97008.52
2023-02-24T11:35:13.874Z,97000.08
2023-02-24T11:37:56.079Z,97000.02
2023-02-24T11:40:33.557Z,96992.31
2023-02-24T11:43:13.936Z,96987.73
2023-02-24T11:45:50.604Z,96977.80
2023-02-24T11:48:28.493Z,96962.59
2023-02-24T11:51:04.337Z,96960.14
2023-02-24T11:53:42.852Z,96959.30
2023-02-24T11:56:19.761Z,96955.83
2023-02-24T11:58:59.831Z,96957.14
2023-02-24T12:01:36.844Z,96958.34
2023-02-24T12:04:21.093Z,96959.05
2023-02-24T12:06:58.789Z,96956.88
2023-02-24T12:09:34.528Z,96954.89
2023-02-24T12:12:15.471Z,96951.32
2023-02-24T12:14:56.098Z,96949.48
2023-02-24T12:17:34.808Z,96949.14
2023-02-24T12:20:18.223Z,96943.92
2023-02-24T12:22:56.081Z,96943.91
2023-02-24T12:25:31.556Z,96938.33
2023-02-24T12:28:16.782Z,96932.58
2023-02-24T12:31:01.377Z,96928.45
2023-02-24T12:33:49.421Z,96928.83
2023-02-24T12:36:38.640Z,96914.45
2023-02-24T12:39:18.324Z,96903.68
2023-02-24T12:42:02.988Z,96903.67
2023-02-24T12:44:45.326Z,96897.56
2023-02-24T12:47:23.561Z,96892.33
2023-02-24T12:50:20.470Z,96892.64
2023-02-24T12:53:06.601Z,96888.76
2023-02-24T12:55:47.148Z,96885.95
2023-02-24T12:58:19.256Z,96884.64
2023-02-24T13:01:06.987Z,96877.53
2023-02-24T13:04:07.748Z,96876.33
2023-02-24T13:06:49.839Z,96868.68
2023-02-24T13:09:28.709Z,96861.99
2023-02-24T13:12:07.314Z,96867.26
2023-02-24T13:14:41.303Z,96862.27
2023-02-24T13:17:22.913Z,96862.30
2023-02-24T13:19:58.321Z,96865.64
2023-02-24T13:22:33.534Z,96866.31
2023-02-24T13:25:23.609Z,96861.50
2023-02-24T13:28:02.320Z,96864.41
2023-02-24T13:30:43.591Z,96864.95
2023-02-24T13:33:32.653Z,96861.78
2023-02-24T13:36:21.641Z,96845.37
2023-02-24T13:39:06.260Z,96838.45
2023-02-24T13:41:43.907Z,96829.95
2023-02-24T13:44:30.178Z,96826.83
2023-02-24T13:47:34.324Z,96833.13
2023-02-24T13:50:25.524Z,96828.23
2023-02-24T13:53:18.492Z,96825.55
2023-02-24T13:56:05.061Z,96823.09
2023-02-24T13:58:54.772Z,96818.25
2023-02-24T14:01:30.962Z,96820.72
2023-02-24T14:04:15.398Z,96822.94
2023-02-24T14:06:53.788Z,96830.41
2023-02-24T14:09:30.647Z,96838.42
2023-02-24T14:12:05.707Z,96845.80
2023-02-24T14:14:38.223Z,96842.80
2023-02-24T14:17:28.812Z,96841.89
2023-02-24T14:20:21.293Z,96834.11
2023-02-24T14:22:55.253Z,96823.36
2023-02-24T14:25:30.214Z,96821.14
2023-02-24T14:28:03.090Z,96824.26
2023-02-24T14:30:38.387Z,96828.99
2023-02-24T14:33:24.820Z,96828.20
2023-02-24T14:35:57.375Z,96820.83
2023-02-24T14:38:35.825Z,96818.04
2023-02-24T14:41:24.433Z,96813.90
2023-02-24T14:43:57.558Z,96804.59
2023-02-24T14:46:30.172Z,96800.89
2023-02-24T14:49:02.717Z,96795.15
2023-02-24T14:51:37.344Z,96789.56
2023-02-24T14:54:15.339Z,96778.38
2023-02-24T14:56:47.703Z,96765.27
2023-02-24T14:59:28.281Z,96768.69
2023-02-24T15:02:00.170Z,96756.63
2023-02-24T15:04:37.949Z,96748.53
2023-02-24T15:07:19.374Z,96746.44
2023-02-24T15:09:56.703Z,96745.96
2023-02-24T15:12:34.783Z,96741.55
2023-02-24T15:15:19.988Z,96740.35
2023-02-24T15:17:55.608Z,96739.98
2023-02-24T15:20:35.335Z,96738.95
2023-02-24T15:23:25.765Z,96734.84
2023-02-24T15:25:58.350Z,96719.83
2023-02-24T15:28:33.175Z,96721.76
2023-02-24T15:31:11.065Z,96722.37
2023-02-24T15:33:45.687Z,96719.22
2023-02-24T15:36:23.741Z,96722.05
2023-02-24T15:38:59.671Z,96717.63
2023-02-24T15:41:43.999Z,96709.06
2023-02-24T15:44:38.726Z,96709.08
2023-02-24T15:47:25.171Z,96698.17
2023-02-24T15:49:58.117Z,96692.34
2023-02-24T15:52:31.633Z,96679.02
2023-02-24T15:55:04.422Z,96669.30
2023-02-24T15:57:36.809Z,96670.27
2023-02-24T16:00:15.549Z,96673.17
2023-02-24T16:02:48.245Z,96665.36
2023-02-24T16:05:20.738Z,96668.60
2023-02-24T16:07:54.915Z,96663.21
2023-02-24T16:10:30.010Z,96659.92
2023-02-24T16:13:04.889Z,96662.80
2023-02-24T16:15:38.028Z,96665.39
2023-02-24T16:18:20.957Z,96664.36
2023-02-24T16:20:57.121Z,96666.56
2023-02-24T16:23:29.551Z,96662.56
2023-02-24T16:26:02.507Z,96658.55
2023-02-24T16:28:34.972Z,96669.40
2023-02-24T16:31:08.252Z,96672.96
2023-02-24T16:33:53.527Z,96663.15
2023-02-24T16:36:28.641Z,96652.36
2023-02-24T16:39:01.311Z,96654.91
2023-02-24T16:41:36.114Z,96647.79
2023-02-24T16:44:09.513Z,96653.32
2023-02-24T16:46:44.830Z,96647.56
2023-02-24T16:49:21.483Z,96638.56
2023-02-24T16:51:53.701Z,96632.51
2023-02-24T16:54:29.288Z,96626.88
2023-02-24T16:57:01.725Z,96631.84
2023-02-24T16:59:33.914Z,96625.88
2023-02-24T17:02:09.331Z,96622.41
2023-02-24T17:04:41.584Z,96625.77
2023-02-24T17:07:16.302Z,96623.28
2023-02-24T17:09:53.299Z,96622.83
2023-02-24T17:12:27.096Z,96625.05
2023-02-24T17:14:59.606Z,96627.48
2023-02-24T17:17:31.936Z,96624.89
2023-02-24T17:20:04.350Z,96619.35
2023-02-24T17:22:37.208Z,96615.73
2023-02-24T17:25:14.023Z,96610.70
2023-02-24T17:27:46.246Z,96609.09
2023-02-24T17:30:20.613Z,96610.36
2023-02-24T17:32:53.067Z,96609.85
2023-02-24T17:35:25.588Z,96605.73
2023-02-24T17:38:00.179Z,96606.86
2023-02-24T17:40:32.477Z,96611.00
2023-02-24T17:43:04.690Z,96612.52
2023-02-24T17:45:37.178Z,96609.02
2023-02-24T17:48:10.109Z,96599.54
2023-02-24T17:50:43.837Z,96589.25
2023-02-24T17:53:16.280Z,96581.81
2023-02-24T17:56:02.000Z,96578.59
2023-02-24T17:58:35.831Z,96573.02
2023-02-24T18:01:08.769Z,96566.27
2023-02-24T18:03:41.178Z,96565.09
2023-02-24T18:06:14.360Z,96562.66
2023-02-24T18:08:46.617Z,96569.43
2023-02-24T18:11:20.529Z,96566.61
2023-02-24T18:13:55.248Z,96562.42
2023-02-24T18:16:30.057Z,96561.63
2023-02-24T18:19:02.479Z,96563.59
2023-02-24T18:21:34.742Z,96557.52
2023-02-24T18:24:07.746Z,96554.69
2023-02-24T18:26:40.625Z,96552.30
2023-02-24T18:29:12.969Z,96548.97
2023-02-24T18:31:45.585Z,96546.50
2023-02-24T18:34:17.960Z,96545.78
2023-02-24T18:36:50.514Z,96543.30
2023-02-24T18:39:22.847Z,96544.54
2023-02-24T18:41:55.087Z,96543.73
2023-02-24T18:44:27.709Z,96538.76
2023-02-24T18:47:16.382Z,96537.23
2023-02-24T18:49:48.547Z,96535.25
2023-02-24T18:52:20.711Z,96530.46
2023-02-24T18:54:53.159Z,96526.92
2023-02-24T18:57:25.405Z,96511.95
2023-02-24T18:59:57.621Z,96510.77
2023-02-24T19:02:30.131Z,96513.02
2023-02-24T19:05:02.543Z,96509.73
2023-02-24T19:07:34.964Z,96503.08
2023-02-24T19:10:10.127Z,96502.16
2023-02-24T19:12:42.403Z,96501.39
2023-02-24T19:15:15.137Z,96496.96
2023-02-24T19:17:47.481Z,96500.70
2023-02-24T19:20:20.040Z,96492.79
2023-02-24T19:22:52.285Z,96486.44
2023-02-24T19:25:24.759Z,96489.39
2023-02-24T19:27:57.048Z,96490.50
2023-02-24T19:30:29.345Z,96479.70
2023-02-24T19:33:01.666Z,96468.19
2023-02-24T19:35:34.138Z,96467.52
2023-02-24T19:38:06.707Z,96465.69
2023-02-24T19:40:38.995Z,96464.56
2023-02-24T19:43:12.063Z,96457.80
2023-02-24T19:45:45.768Z,96452.13
2023-02-24T19:48:18.299Z,96448.81
2023-02-24T19:50:50.615Z,96443.37
2023-02-24T19:53:22.788Z,96441.03
2023-02-24T19:55:55.280Z,96431.59
2023-02-24T19:58:27.888Z,96425.19
2023-02-24T20:01:09.327Z,96422.71
2023-02-24T20:03:43.486Z,96431.88
2023-02-24T20:06:22.407Z,96436.36
2023-02-24T20:08:55.190Z,96442.61
2023-02-24T20:11:29.935Z,96426.40
2023-02-24T20:14:02.278Z,96411.85
2023-02-24T20:16:34.902Z,96408.90
2023-02-24T20:19:09.291Z,96399.41
2023-02-24T20:21:42.723Z,96403.35
2023-02-24T20:24:16.767Z,96403.91
2023-02-24T20:26:50.072Z,96396.27
2023-02-24T20:29:23.623Z,96397.45
2023-02-24T20:31:56.047Z,96394.85
2023-02-24T20:34:28.845Z,96390.57
2023-02-24T20:37:02.123Z,96383.19
2023-02-24T20:39:34.795Z,96376.65
2023-02-24T20:42:07.116Z,96374.36
2023-02-24T20:44:39.611Z,96371.49
2023-02-24T20:47:11.895Z,96370.39
2023-02-24T20:49:44.228Z,96366.98
2023-02-24T20:52:16.510Z,96357.20
2023-02-24T20:54:48.742Z,96342.06
2023-02-24T20:57:22.970Z,96338.38
2023-02-24T21:00:03.479Z,96334.60
2023-02-24T21:02:36.619Z,96333.46
2023-02-24T21:05:10.506Z,96333.90
2023-02-24T21:07:42.828Z,96327.24
2023-02-24T21:10:15.986Z,96326.58
2023-02-24T21:12:50.543Z,96319.11
2023-02-24T21:15:22.930Z,96312.42
2023-02-24T21:17:55.101Z,96309.88
2023-02-24T21:20:27.346Z,96308.73
2023-02-24T21:23:02.988Z,96308.52
2023-02-24T21:25:35.267Z,96313.30
2023-02-24T21:28:07.990Z,96317.59
2023-02-24T21:30:43.966Z,96310.92
2023-02-24T21:33:16.658Z,96300.66
2023-02-24T21:36:00.339Z,96298.71
2023-02-24T21:38:34.118Z,96295.44
2023-02-24T21:41:08.960Z,96292.34
2023-02-24T21:43:44.407Z,96282.61
2023-02-24T21:46:18.392Z,96282.14
2023-02-24T21:48:56.511Z,96285.13
2023-02-24T21:51:30.029Z,96283.69
2023-02-24T21:54:05.073Z,96279.30
2023-02-24T21:56:37.474Z,96274.34
2023-02-24T21:59:12.394Z,96276.75
2023-02-24T22:01:48.167Z,96269.86
2023-02-24T22:04:21.550Z,96263.52
2023-02-24T22:06:53.959Z,96259.65
2023-02-24T22:09:36.810Z,96261.95
2023-02-24T22:12:11.673Z,96255.99
2023-02-24T22:14:44.076Z,96247.94
2023-02-24T22:17:16.352Z,96245.63
2023-02-24T22:19:51.110Z,96248.09
2023-02-24T22:22:24.607Z,96253.55
2023-02-24T22:24:56.905Z,96255.08
2023-02-24T22:27:31.339Z,96257.98
2023-02-24T22:30:03.829Z,96264.84
2023-02-24T22:32:36.368Z,96273.17
2023-02-24T22:35:10.060Z,96272.17
2023-02-24T22:37:44.801Z,96274.81
2023-02-24T22:40:20.926Z,96281.18
2023-02-24T22:42:53.393Z,96283.25
2023-02-24T22:45:26.435Z,96279.48
2023-02-24T22:48:00.756Z,96277.26
2023-02-24T22:50:35.551Z,96269.89
2023-02-24T22:53:10.099Z,96268.20
2023-02-24T22:55:49.745Z,96269.56
2023-02-24T22:58:23.994Z,96266.44
2023-02-24T23:00:59.861Z,96266.04
2023-02-24T23:03:33.098Z,96268.94
2023-02-24T23:06:09.062Z,96272.34
2023-02-24T23:08:43.493Z,96275.05
2023-02-24T23:11:18.567Z,96267.48
2023-02-24T23:13:55.655Z,96265.54
2023-02-24T23:16:31.509Z,96258.06
2023-02-24T23:19:07.504Z,96247.69
2023-02-24T23:21:46.342Z,96248.02
2023-02-24T23:24:20.440Z,96242.48
2023-02-24T23:26:58.087Z,96234.40
2023-02-24T23:29:33.966Z,96224.77
2023-02-24T23:32:13.675Z,96226.80
2023-02-24T23:34:46.472Z,96217.27
2023-02-24T23:37:21.805Z,96212.22
2023-02-24T23:39:55.062Z,96207.48
2023-02-24T23:42:30.437Z,96201.34
2023-02-24T23:45:04.035Z,96193.21
2023-02-24T23:47:36.803Z,96198.88
2023-02-24T23:50:10.817Z,96194.10
2023-02-24T23:52:44.324Z,96194.27
2023-02-24T23:55:16.864Z,96185.59
2023-02-24T23:57:49.231Z,96177.43
